sensor_id;sensor_type;location;lat;lon;timestamp;pressure;altitude;pressure_sealevel;temperature;humidity
54588;BME280;40484;50.198;19.576;2022-11-30T00:00:39;102473.34;;;4.95;51.24
54588;BME280;40484;50.198;19.576;2022-11-30T00:05:42;102466.37;;;4.92;51.41
54588;BME280;40484;50.198;19.576;2022-11-30T00:10:43;102459.42;;;5.02;51.25
54588;BME280;40484;50.198;19.576;2022-11-30T00:15:45;102471.90;;;4.91;51.58
54588;BME280;40484;50.198;19.576;2022-11-30T00:20:46;102474.84;;;4.75;52.02
54588;BME280;40484;50.198;19.576;2022-11-30T00:25:48;102485.03;;;4.86;51.82
54588;BME280;40484;50.198;19.576;2022-11-30T00:31:00;102490.22;;;4.91;51.61
54588;BME280;40484;50.198;19.576;2022-11-30T00:36:26;102490.41;;;4.94;51.61
54588;BME280;40484;50.198;19.576;2022-11-30T00:41:28;102492.86;;;4.98;51.58
54588;BME280;40484;50.198;19.576;2022-11-30T00:46:29;102490.99;;;4.98;51.55
54588;BME280;40484;50.198;19.576;2022-11-30T00:51:31;102486.42;;;4.97;51.55
54588;BME280;40484;50.198;19.576;2022-11-30T00:56:32;102489.38;;;4.94;51.46
54588;BME280;40484;50.198;19.576;2022-11-30T01:01:34;102483.38;;;5.19;51.30
54588;BME280;40484;50.198;19.576;2022-11-30T01:06:36;102483.20;;;5.16;51.18
54588;BME280;40484;50.198;19.576;2022-11-30T01:11:37;102479.70;;;4.95;51.42
54588;BME280;40484;50.198;19.576;2022-11-30T01:16:39;102479.15;;;5.08;51.30
54588;BME280;40484;50.198;19.576;2022-11-30T01:21:40;102478.97;;;5.18;51.19
54588;BME280;40484;50.198;19.576;2022-11-30T01:26:42;102478.63;;;5.19;51.12
54588;BME280;40484;50.198;19.576;2022-11-30T01:31:43;102471.94;;;5.21;51.07
54588;BME280;40484;50.198;19.576;2022-11-30T01:36:45;102476.50;;;4.96;51.24
54588;BME280;40484;50.198;19.576;2022-11-30T01:41:48;102478.63;;;5.02;51.25
54588;BME280;40484;50.198;19.576;2022-11-30T01:52:04;102488.72;;;5.06;51.12
54588;BME280;40484;50.198;19.576;2022-11-30T01:57:16;102479.91;;;5.11;51.12
54588;BME280;40484;50.198;19.576;2022-11-30T02:02:16;102484.98;;;5.10;51.07
54588;BME280;40484;50.198;19.576;2022-11-30T02:07:42;102487.37;;;5.12;51.03
54588;BME280;40484;50.198;19.576;2022-11-30T02:12:50;102493.53;;;4.95;51.14
54588;BME280;40484;50.198;19.576;2022-11-30T02:17:55;102486.48;;;4.81;51.42
54588;BME280;40484;50.198;19.576;2022-11-30T02:33:34;102494.85;;;4.76;51.69
54588;BME280;40484;50.198;19.576;2022-11-30T02:38:37;102493.45;;;4.98;51.40
54588;BME280;40484;50.198;19.576;2022-11-30T02:43:38;102499.33;;;5.00;51.33
54588;BME280;40484;50.198;19.576;2022-11-30T02:53:47;102498.20;;;4.61;51.74
54588;BME280;40484;50.198;19.576;2022-11-30T02:58:49;102497.95;;;4.60;51.83
54588;BME280;40484;50.198;19.576;2022-11-30T03:03:51;102503.95;;;4.36;51.98
54588;BME280;40484;50.198;19.576;2022-11-30T03:08:53;102507.12;;;4.42;51.94
54588;BME280;40484;50.198;19.576;2022-11-30T03:14:19;102509.11;;;4.48;51.77
54588;BME280;40484;50.198;19.576;2022-11-30T03:19:20;102505.97;;;4.51;51.76
54588;BME280;40484;50.198;19.576;2022-11-30T03:24:21;102511.20;;;4.65;51.64
54588;BME280;40484;50.198;19.576;2022-11-30T03:29:23;102514.44;;;4.72;51.54
54588;BME280;40484;50.198;19.576;2022-11-30T03:34:24;102514.72;;;4.78;51.40
54588;BME280;40484;50.198;19.576;2022-11-30T03:39:28;102517.55;;;4.93;51.12
54588;BME280;40484;50.198;19.576;2022-11-30T03:44:29;102515.16;;;4.91;51.08
54588;BME280;40484;50.198;19.576;2022-11-30T03:49:31;102515.91;;;4.81;50.99
54588;BME280;40484;50.198;19.576;2022-11-30T03:54:32;102518.90;;;4.87;51.06
54588;BME280;40484;50.198;19.576;2022-11-30T03:59:34;102522.13;;;4.90;50.99
54588;BME280;40484;50.198;19.576;2022-11-30T04:04:35;102516.67;;;4.88;50.99
54588;BME280;40484;50.198;19.576;2022-11-30T04:09:37;102527.17;;;4.80;51.21
54588;BME280;40484;50.198;19.576;2022-11-30T04:14:39;102528.99;;;4.91;51.11
54588;BME280;40484;50.198;19.576;2022-11-30T04:19:40;102529.88;;;5.09;50.77
54588;BME280;40484;50.198;19.576;2022-11-30T04:24:42;102531.66;;;5.08;50.75
54588;BME280;40484;50.198;19.576;2022-11-30T04:29:43;102534.27;;;4.98;50.83
54588;BME280;40484;50.198;19.576;2022-11-30T04:34:45;102548.24;;;4.85;50.98
54588;BME280;40484;50.198;19.576;2022-11-30T04:39:46;102548.27;;;4.65;51.25
54588;BME280;40484;50.198;19.576;2022-11-30T04:44:48;102539.89;;;4.55;51.25
54588;BME280;40484;50.198;19.576;2022-11-30T04:49:49;102541.91;;;4.70;51.35
54588;BME280;40484;50.198;19.576;2022-11-30T04:54:51;102543.43;;;4.43;51.84
54588;BME280;40484;50.198;19.576;2022-11-30T04:59:53;102546.58;;;4.33;51.74
54588;BME280;40484;50.198;19.576;2022-11-30T05:05:19;102557.60;;;4.46;51.60
54588;BME280;40484;50.198;19.576;2022-11-30T05:10:20;102560.72;;;4.63;51.36
54588;BME280;40484;50.198;19.576;2022-11-30T05:15:22;102555.48;;;4.65;51.33
54588;BME280;40484;50.198;19.576;2022-11-30T05:20:23;102551.71;;;4.60;51.31
54588;BME280;40484;50.198;19.576;2022-11-30T05:25:25;102544.75;;;4.61;51.36
54588;BME280;40484;50.198;19.576;2022-11-30T05:30:26;102552.27;;;4.71;51.26
54588;BME280;40484;50.198;19.576;2022-11-30T05:35:28;102551.34;;;4.68;51.12
54588;BME280;40484;50.198;19.576;2022-11-30T05:40:29;102551.97;;;4.85;50.99
54588;BME280;40484;50.198;19.576;2022-11-30T05:45:33;102550.59;;;4.74;50.98
54588;BME280;40484;50.198;19.576;2022-11-30T05:50:34;102551.08;;;4.52;51.34
54588;BME280;40484;50.198;19.576;2022-11-30T05:55:36;102545.84;;;4.34;51.53
54588;BME280;40484;50.198;19.576;2022-11-30T06:00:37;102560.14;;;4.05;52.07
54588;BME280;40484;50.198;19.576;2022-11-30T06:05:39;102568.54;;;4.04;51.96
54588;BME280;40484;50.198;19.576;2022-11-30T06:10:40;102578.32;;;4.10;51.86
54588;BME280;40484;50.198;19.576;2022-11-30T06:15:42;102573.22;;;4.07;52.00
54588;BME280;40484;50.198;19.576;2022-11-30T06:20:44;102578.52;;;4.14;51.86
54588;BME280;40484;50.198;19.576;2022-11-30T06:25:45;102570.41;;;4.20;51.72
54588;BME280;40484;50.198;19.576;2022-11-30T06:30:47;102579.75;;;4.06;52.10
54588;BME280;40484;50.198;19.576;2022-11-30T06:35:48;102587.33;;;4.02;52.39
54588;BME280;40484;50.198;19.576;2022-11-30T06:40:50;102586.29;;;4.09;52.26
54588;BME280;40484;50.198;19.576;2022-11-30T06:45:52;102590.95;;;4.27;51.92
54588;BME280;40484;50.198;19.576;2022-11-30T06:50:53;102585.96;;;4.26;51.93
54588;BME280;40484;50.198;19.576;2022-11-30T06:56:19;102577.10;;;4.65;51.43
54588;BME280;40484;50.198;19.576;2022-11-30T07:01:21;102584.70;;;4.81;51.15
54588;BME280;40484;50.198;19.576;2022-11-30T07:06:22;102595.12;;;4.79;51.01
54588;BME280;40484;50.198;19.576;2022-11-30T07:11:24;102587.48;;;4.74;51.06
54588;BME280;40484;50.198;19.576;2022-11-30T07:16:26;102599.74;;;4.65;51.16
54588;BME280;40484;50.198;19.576;2022-11-30T07:21:27;102597.70;;;4.69;51.11
54588;BME280;40484;50.198;19.576;2022-11-30T07:26:29;102592.58;;;4.78;51.08
54588;BME280;40484;50.198;19.576;2022-11-30T07:31:31;102597.44;;;4.84;50.90
54588;BME280;40484;50.198;19.576;2022-11-30T07:36:36;102595.49;;;4.62;51.00
54588;BME280;40484;50.198;19.576;2022-11-30T07:41:38;102595.86;;;4.49;51.04
54588;BME280;40484;50.198;19.576;2022-11-30T07:46:40;102603.26;;;4.26;51.53
54588;BME280;40484;50.198;19.576;2022-11-30T07:51:41;102603.00;;;4.29;51.50
54588;BME280;40484;50.198;19.576;2022-11-30T07:56:43;102617.17;;;4.28;51.79
54588;BME280;40484;50.198;19.576;2022-11-30T08:01:44;102614.77;;;4.37;51.79
54588;BME280;40484;50.198;19.576;2022-11-30T08:06:46;102605.90;;;4.45;51.74
54588;BME280;40484;50.198;19.576;2022-11-30T08:11:48;102609.33;;;4.51;51.68
54588;BME280;40484;50.198;19.576;2022-11-30T08:16:50;102619.40;;;4.47;51.76
54588;BME280;40484;50.198;19.576;2022-11-30T08:21:51;102613.80;;;4.19;52.31
54588;BME280;40484;50.198;19.576;2022-11-30T08:26:53;102625.39;;;4.28;52.13
54588;BME280;40484;50.198;19.576;2022-11-30T08:31:54;102625.77;;;3.97;52.66
54588;BME280;40484;50.198;19.576;2022-11-30T08:36:56;102634.33;;;4.11;52.53
54588;BME280;40484;50.198;19.576;2022-11-30T08:42:23;102635.59;;;4.19;52.55
54588;BME280;40484;50.198;19.576;2022-11-30T08:47:25;102632.64;;;4.10;52.93
54588;BME280;40484;50.198;19.576;2022-11-30T08:52:26;102635.48;;;4.28;52.67
54588;BME280;40484;50.198;19.576;2022-11-30T08:57:28;102646.58;;;4.28;52.74
54588;BME280;40484;50.198;19.576;2022-11-30T09:02:30;102636.74;;;4.29;52.69
54588;BME280;40484;50.198;19.576;2022-11-30T09:07:32;102633.80;;;4.20;52.80
54588;BME280;40484;50.198;19.576;2022-11-30T09:12:35;102629.16;;;4.22;53.08
54588;BME280;40484;50.198;19.576;2022-11-30T09:17:36;102632.12;;;4.35;52.76
54588;BME280;40484;50.198;19.576;2022-11-30T09:22:38;102632.18;;;4.28;52.87
54588;BME280;40484;50.198;19.576;2022-11-30T09:27:39;102632.20;;;4.32;52.81
54588;BME280;40484;50.198;19.576;2022-11-30T09:32:41;102625.48;;;4.45;52.60
54588;BME280;40484;50.198;19.576;2022-11-30T09:37:42;102632.31;;;4.49;52.65
54588;BME280;40484;50.198;19.576;2022-11-30T09:43:10;102622.05;;;4.50;52.68
54588;BME280;40484;50.198;19.576;2022-11-30T09:48:13;102633.27;;;4.41;53.17
54588;BME280;40484;50.198;19.576;2022-11-30T09:53:24;102627.99;;;4.38;53.05
54588;BME280;40484;50.198;19.576;2022-11-30T09:58:57;102631.59;;;4.44;52.94
54588;BME280;40484;50.198;19.576;2022-11-30T10:03:58;102617.91;;;4.43;53.29
54588;BME280;40484;50.198;19.576;2022-11-30T10:09:05;102605.34;;;4.70;52.81
54588;BME280;40484;50.198;19.576;2022-11-30T10:14:29;102600.44;;;4.94;52.60
54588;BME280;40484;50.198;19.576;2022-11-30T10:19:37;102600.13;;;5.05;52.46
54588;BME280;40484;50.198;19.576;2022-11-30T10:29:41;102610.39;;;4.75;52.80
54588;BME280;40484;50.198;19.576;2022-11-30T10:34:48;102599.83;;;4.91;52.73
54588;BME280;40484;50.198;19.576;2022-11-30T10:45:00;102592.06;;;4.80;52.69
54588;BME280;40484;50.198;19.576;2022-11-30T10:49:59;102600.30;;;4.60;52.88
54588;BME280;40484;50.198;19.576;2022-11-30T10:55:01;102600.96;;;4.57;53.11
54588;BME280;40484;50.198;19.576;2022-11-30T11:00:04;102606.55;;;4.73;52.83
54588;BME280;40484;50.198;19.576;2022-11-30T11:05:31;102599.11;;;5.01;52.22
54588;BME280;40484;50.198;19.576;2022-11-30T11:15:58;102586.55;;;5.00;51.89
54588;BME280;40484;50.198;19.576;2022-11-30T11:26:25;102592.55;;;4.93;52.12
54588;BME280;40484;50.198;19.576;2022-11-30T11:31:34;102593.66;;;4.95;52.07
54588;BME280;40484;50.198;19.576;2022-11-30T11:36:34;102593.36;;;5.14;51.79
54588;BME280;40484;50.198;19.576;2022-11-30T11:41:37;102597.98;;;5.32;51.51
54588;BME280;40484;50.198;19.576;2022-11-30T11:46:52;102599.27;;;5.24;51.49
54588;BME280;40484;50.198;19.576;2022-11-30T11:52:23;102604.12;;;5.30;51.19
54588;BME280;40484;50.198;19.576;2022-11-30T11:57:35;102608.14;;;5.12;51.05
54588;BME280;40484;50.198;19.576;2022-11-30T12:02:57;102601.88;;;4.94;51.28
54588;BME280;40484;50.198;19.576;2022-11-30T12:08:18;102607.88;;;4.67;51.77
54588;BME280;40484;50.198;19.576;2022-11-30T12:13:20;102609.62;;;4.57;51.89
54588;BME280;40484;50.198;19.576;2022-11-30T12:18:24;102613.89;;;4.48;52.30
54588;BME280;40484;50.198;19.576;2022-11-30T12:45:25;102620.19;;;4.70;51.56
54588;BME280;40484;50.198;19.576;2022-11-30T13:06:04;102614.19;;;4.93;51.38
54588;BME280;40484;50.198;19.576;2022-11-30T13:11:33;102606.53;;;4.88;51.29
54588;BME280;40484;50.198;19.576;2022-11-30T13:16:33;102606.97;;;4.73;51.41
54588;BME280;40484;50.198;19.576;2022-11-30T13:21:38;102607.88;;;4.87;51.39
54588;BME280;40484;50.198;19.576;2022-11-30T13:32:09;102597.64;;;4.72;51.31
54588;BME280;40484;50.198;19.576;2022-11-30T13:37:18;102596.89;;;4.42;51.71
54588;BME280;40484;50.198;19.576;2022-11-30T13:42:42;102606.55;;;4.37;51.84
54588;BME280;40484;50.198;19.576;2022-11-30T13:47:48;102602.41;;;4.25;52.18
54588;BME280;40484;50.198;19.576;2022-11-30T13:58:30;102592.20;;;4.35;52.13
54588;BME280;40484;50.198;19.576;2022-11-30T14:03:32;102600.35;;;4.53;51.93
54588;BME280;40484;50.198;19.576;2022-11-30T14:08:35;102598.79;;;4.67;51.70
54588;BME280;40484;50.198;19.576;2022-11-30T14:13:37;102603.65;;;4.69;51.54
54588;BME280;40484;50.198;19.576;2022-11-30T14:18:40;102601.80;;;4.57;51.82
54588;BME280;40484;50.198;19.576;2022-11-30T14:23:49;102605.05;;;4.64;51.55
54588;BME280;40484;50.198;19.576;2022-11-30T14:28:52;102601.56;;;4.41;51.81
54588;BME280;40484;50.198;19.576;2022-11-30T14:34:16;102601.21;;;4.26;52.25
54588;BME280;40484;50.198;19.576;2022-11-30T14:39:40;102601.02;;;4.38;52.16
54588;BME280;40484;50.198;19.576;2022-11-30T14:44:39;102593.51;;;4.40;52.14
54588;BME280;40484;50.198;19.576;2022-11-30T14:49:45;102589.50;;;4.54;51.94
54588;BME280;40484;50.198;19.576;2022-11-30T15:00:19;102601.94;;;4.83;51.52
54588;BME280;40484;50.198;19.576;2022-11-30T15:05:22;102604.91;;;4.85;51.32
54588;BME280;40484;50.198;19.576;2022-11-30T15:10:29;102611.89;;;4.68;51.49
54588;BME280;40484;50.198;19.576;2022-11-30T15:16:32;102615.32;;;4.59;51.83
54588;BME280;40484;50.198;19.576;2022-11-30T15:21:33;102624.39;;;4.59;52.00
54588;BME280;40484;50.198;19.576;2022-11-30T15:26:37;102623.18;;;4.56;51.94
54588;BME280;40484;50.198;19.576;2022-11-30T15:31:40;102623.61;;;4.56;51.98
54588;BME280;40484;50.198;19.576;2022-11-30T15:36:42;102631.88;;;4.38;52.31
54588;BME280;40484;50.198;19.576;2022-11-30T15:41:43;102626.86;;;4.48;52.19
54588;BME280;40484;50.198;19.576;2022-11-30T15:46:59;102630.63;;;4.53;52.26
54588;BME280;40484;50.198;19.576;2022-11-30T15:57:10;102635.44;;;4.39;52.54
54588;BME280;40484;50.198;19.576;2022-11-30T16:02:25;102646.85;;;4.49;52.57
54588;BME280;40484;50.198;19.576;2022-11-30T16:07:29;102649.01;;;4.66;52.20
54588;BME280;40484;50.198;19.576;2022-11-30T16:12:30;102653.09;;;4.84;52.08
54588;BME280;40484;50.198;19.576;2022-11-30T16:17:31;102660.91;;;4.88;51.67
54588;BME280;40484;50.198;19.576;2022-11-30T16:22:34;102658.50;;;4.82;51.84
54588;BME280;40484;50.198;19.576;2022-11-30T16:28:01;102663.91;;;4.79;51.84
54588;BME280;40484;50.198;19.576;2022-11-30T16:33:03;102664.94;;;4.83;51.90
54588;BME280;40484;50.198;19.576;2022-11-30T16:38:04;102670.95;;;4.80;51.98
54588;BME280;40484;50.198;19.576;2022-11-30T16:43:09;102662.57;;;4.81;51.94
54588;BME280;40484;50.198;19.576;2022-11-30T16:48:10;102664.24;;;4.93;51.77
54588;BME280;40484;50.198;19.576;2022-11-30T16:53:12;102661.98;;;4.97;51.71
54588;BME280;40484;50.198;19.576;2022-11-30T16:58:17;102669.66;;;4.94;51.80
54588;BME280;40484;50.198;19.576;2022-11-30T17:03:24;102667.25;;;4.99;51.72
54588;BME280;40484;50.198;19.576;2022-11-30T17:08:25;102677.38;;;4.77;51.88
54588;BME280;40484;50.198;19.576;2022-11-30T17:13:27;102670.05;;;4.70;52.22
54588;BME280;40484;50.198;19.576;2022-11-30T17:18:28;102678.69;;;4.82;52.05
54588;BME280;40484;50.198;19.576;2022-11-30T17:23:30;102664.52;;;4.82;52.02
54588;BME280;40484;50.198;19.576;2022-11-30T17:28:31;102672.68;;;4.65;52.23
54588;BME280;40484;50.198;19.576;2022-11-30T17:33:33;102673.59;;;4.63;52.44
54588;BME280;40484;50.198;19.576;2022-11-30T17:38:35;102675.80;;;4.77;52.21
54588;BME280;40484;50.198;19.576;2022-11-30T17:43:37;102669.12;;;4.84;52.15
54588;BME280;40484;50.198;19.576;2022-11-30T17:48:38;102678.28;;;4.86;52.06
54588;BME280;40484;50.198;19.576;2022-11-30T17:53:41;102683.62;;;4.85;52.11
54588;BME280;40484;50.198;19.576;2022-11-30T17:58:43;102687.45;;;4.83;52.21
54588;BME280;40484;50.198;19.576;2022-11-30T18:03:45;102683.61;;;4.97;52.00
54588;BME280;40484;50.198;19.576;2022-11-30T18:09:11;102686.20;;;5.07;51.84
54588;BME280;40484;50.198;19.576;2022-11-30T18:14:13;102680.41;;;5.03;51.86
54588;BME280;40484;50.198;19.576;2022-11-30T18:19:14;102677.70;;;5.02;51.82
54588;BME280;40484;50.198;19.576;2022-11-30T18:24:18;102678.99;;;4.91;51.95
54588;BME280;40484;50.198;19.576;2022-11-30T18:29:19;102674.52;;;4.96;51.94
54588;BME280;40484;50.198;19.576;2022-11-30T18:34:21;102674.37;;;5.02;51.97
54588;BME280;40484;50.198;19.576;2022-11-30T18:39:22;102676.02;;;5.05;51.91
54588;BME280;40484;50.198;19.576;2022-11-30T18:44:24;102679.86;;;5.16;51.86
54588;BME280;40484;50.198;19.576;2022-11-30T18:49:25;102677.65;;;5.09;52.02
54588;BME280;40484;50.198;19.576;2022-11-30T18:54:27;102681.23;;;5.19;51.94
54588;BME280;40484;50.198;19.576;2022-11-30T18:59:30;102683.48;;;5.30;51.86
54588;BME280;40484;50.198;19.576;2022-11-30T19:04:32;102672.74;;;5.22;51.87
54588;BME280;40484;50.198;19.576;2022-11-30T19:09:33;102687.59;;;5.18;52.13
54588;BME280;40484;50.198;19.576;2022-11-30T19:14:35;102690.63;;;5.09;52.34
54588;BME280;40484;50.198;19.576;2022-11-30T19:19:36;102694.36;;;4.94;52.63
54588;BME280;40484;50.198;19.576;2022-11-30T19:24:38;102691.84;;;4.96;52.64
54588;BME280;40484;50.198;19.576;2022-11-30T19:29:40;102690.41;;;5.21;52.32
54588;BME280;40484;50.198;19.576;2022-11-30T19:34:41;102694.23;;;4.83;53.02
54588;BME280;40484;50.198;19.576;2022-11-30T19:39:43;102692.32;;;4.90;52.86
54588;BME280;40484;50.198;19.576;2022-11-30T19:44:45;102695.88;;;4.76;53.30
54588;BME280;40484;50.198;19.576;2022-11-30T19:49:46;102694.68;;;4.88;53.08
54588;BME280;40484;50.198;19.576;2022-11-30T19:55:15;102702.23;;;4.86;52.93
54588;BME280;40484;50.198;19.576;2022-11-30T20:00:17;102694.31;;;4.81;53.04
54588;BME280;40484;50.198;19.576;2022-11-30T20:05:19;102695.98;;;4.77;53.17
54588;BME280;40484;50.198;19.576;2022-11-30T20:10:21;102703.86;;;4.79;53.07
54588;BME280;40484;50.198;19.576;2022-11-30T20:15:23;102693.23;;;4.88;52.95
54588;BME280;40484;50.198;19.576;2022-11-30T20:20:24;102695.03;;;4.95;52.79
54588;BME280;40484;50.198;19.576;2022-11-30T20:25:30;102698.45;;;4.93;52.71
54588;BME280;40484;50.198;19.576;2022-11-30T20:30:32;102702.13;;;4.84;52.82
54588;BME280;40484;50.198;19.576;2022-11-30T20:35:34;102705.25;;;4.85;52.84
54588;BME280;40484;50.198;19.576;2022-11-30T20:40:36;102707.23;;;5.03;52.37
54588;BME280;40484;50.198;19.576;2022-11-30T20:45:39;102708.08;;;4.88;52.59
54588;BME280;40484;50.198;19.576;2022-11-30T20:50:41;102698.38;;;5.00;52.53
54588;BME280;40484;50.198;19.576;2022-11-30T20:55:42;102698.61;;;5.12;52.29
54588;BME280;40484;50.198;19.576;2022-11-30T21:00:44;102689.36;;;5.12;52.33
54588;BME280;40484;50.198;19.576;2022-11-30T21:05:45;102683.86;;;5.18;52.29
54588;BME280;40484;50.198;19.576;2022-11-30T21:10:47;102690.32;;;5.19;52.22
54588;BME280;40484;50.198;19.576;2022-11-30T21:15:49;102691.45;;;5.05;52.57
54588;BME280;40484;50.198;19.576;2022-11-30T21:20:50;102695.30;;;5.16;52.44
54588;BME280;40484;50.198;19.576;2022-11-30T21:25:52;102694.91;;;5.04;52.74
54588;BME280;40484;50.198;19.576;2022-11-30T21:30:53;102700.59;;;5.18;52.46
54588;BME280;40484;50.198;19.576;2022-11-30T21:35:55;102690.25;;;5.22;52.47
54588;BME280;40484;50.198;19.576;2022-11-30T21:41:20;102696.97;;;5.28;52.38
54588;BME280;40484;50.198;19.576;2022-11-30T21:46:22;102693.77;;;5.38;52.24
54588;BME280;40484;50.198;19.576;2022-11-30T21:51:25;102694.19;;;5.34;52.29
54588;BME280;40484;50.198;19.576;2022-11-30T21:56:29;102682.12;;;5.32;52.48
54588;BME280;40484;50.198;19.576;2022-11-30T22:01:32;102690.80;;;5.37;52.38
54588;BME280;40484;50.198;19.576;2022-11-30T22:06:35;102686.02;;;5.32;52.58
54588;BME280;40484;50.198;19.576;2022-11-30T22:11:38;102678.73;;;5.35;52.54
54588;BME280;40484;50.198;19.576;2022-11-30T22:16:40;102679.55;;;5.26;52.95
54588;BME280;40484;50.198;19.576;2022-11-30T22:21:42;102678.56;;;5.31;52.87
54588;BME280;40484;50.198;19.576;2022-11-30T22:26:44;102679.59;;;5.35;52.85
54588;BME280;40484;50.198;19.576;2022-11-30T22:31:47;102682.25;;;5.47;52.56
54588;BME280;40484;50.198;19.576;2022-11-30T22:36:49;102677.59;;;5.57;52.46
54588;BME280;40484;50.198;19.576;2022-11-30T22:41:51;102672.59;;;5.56;52.52
54588;BME280;40484;50.198;19.576;2022-11-30T22:46:53;102673.68;;;5.53;52.61
54588;BME280;40484;50.198;19.576;2022-11-30T22:51:55;102674.88;;;5.57;52.54
54588;BME280;40484;50.198;19.576;2022-11-30T22:56:56;102671.42;;;5.61;52.57
54588;BME280;40484;50.198;19.576;2022-11-30T23:08:37;102663.35;;;5.61;52.69
54588;BME280;40484;50.198;19.576;2022-11-30T23:13:40;102664.80;;;5.61;52.73
54588;BME280;40484;50.198;19.576;2022-11-30T23:18:49;102672.68;;;5.66;52.73
54588;BME280;40484;50.198;19.576;2022-11-30T23:23:53;102664.91;;;5.80;52.59
54588;BME280;40484;50.198;19.576;2022-11-30T23:28:57;102662.45;;;5.89;52.39
54588;BME280;40484;50.198;19.576;2022-11-30T23:33:57;102661.80;;;6.01;52.33
54588;BME280;40484;50.198;19.576;2022-11-30T23:39:04;102657.72;;;5.97;52.31
54588;BME280;40484;50.198;19.576;2022-11-30T23:44:05;102650.21;;;5.92;52.52
54588;BME280;40484;50.198;19.576;2022-11-30T23:49:07;102655.84;;;6.06;52.34
54588;BME280;40484;50.198;19.576;2022-11-30T23:54:09;102645.05;;;6.09;52.21
54588;BME280;40484;50.198;19.576;2022-11-30T23:59:10;102645.64;;;5.82;52.86
